Create Custom Reports and Graphics: Custom Report

Alpine-Roundhouse Btm 6950'

Current Conditions

7/8/20 12:15 AM (-07:00)
Updated Every 15 Minutes
Temp 50.1 °F   7.2
RH 40 %   19
Wet Bulb 39.1 °F   0.8
Dew Pt 26.5 °F   9.2
Wind Spd 4.0 mph
Wind Dir SSW | 206 °
Wind Gust 5.7 mph   8.0
WindChill 49.5 °F   7.8
Barometric Pressure 30.14 inHg   0.02
Daily Min Temp 50.0 °F   7.1
Daily Max Temp 50.4 °F   7.2
Latest Rain 0.00 In
Daily Rain 0.00 In
SnowDepth 3.2 in

Last 6 Hours

Alpine-Roundhouse Btm 6950'

15 Minute Data | America/Los_Angeles
as of 7/8/20 12:27 AM PDT
Date & Time Temp (°F) RH (%) Dew Pt (°F) Wet Bulb (°F) Wind Dir (°) Wind Spd (mph) Wind Gust (mph) WindChill (°F) Barometric Pressure (inHg) SnowDepth (in) Latest Rain (In) Daily Rain (In) Daily Min Temp (°F) Daily Max Temp (°F)
7/8/20 - 0015 50.1 40 26.5 39.1 SSW | 206 4.0 5.7 49.5 30.14 3.2 0.00 0.00 50.0 50.4
7/8/20 - 0000 50.4 39 26.5 39.2 SSW | 208 3.6 5.1 48.6 30.15 3.3 0.00 0.00 49.3 68.6
7/7/20 - 2345 50.9 42 28.4 40.1 SSW | 208 3.4 5.5 49.8 30.15 3.1 0.00 0.00 49.3 68.6
7/7/20 - 2330 51.3 45 30.8 41.1 SSW | 209 2.5 4.6 51.3 30.15 3.1 0.00 0.00 49.3 68.6
7/7/20 - 2315 52.0 46 31.8 41.8 SSW | 206 2.7 4.8 52.0 30.15 3.1 0.00 0.00 49.3 68.6
7/7/20 - 2300 52.1 48 33.0 42.4 SSW | 206 2.2 4.0 52.1 30.15 3.3 0.00 0.00 49.3 68.6
7/7/20 - 2245 51.9 49 33.4 42.4 SSW | 207 3.0 5.5 51.9 30.15 3.0 0.00 0.00 49.3 68.6
7/7/20 - 2230 52.9 46 32.4 42.5 SSW | 203 2.4 4.7 52.9 30.15 2.9 0.00 0.00 49.3 68.6
7/7/20 - 2215 53.5 42 31.1 42.3 SSW | 196 2.7 5.2 53.5 30.16 3.2 0.00 0.00 49.3 68.6
7/7/20 - 2200 54.1 41 31.1 42.5 S | 184 3.3 5.0 54.1 30.16 3.4 0.00 0.00 49.3 68.6
7/7/20 - 2145 54.4 41 31.2 42.7 S | 190 2.9 4.1 54.4 30.14 3.7 0.00 0.00 49.3 68.6
7/7/20 - 2130 53.6 42 31.3 42.4 SSW | 207 2.7 5.2 53.6 30.13 3.4 0.00 0.00 49.3 68.6
7/7/20 - 2115 54.4 41 31.2 42.7 SSW | 208 2.9 6.5 54.4 30.13 3.5 0.00 0.00 49.3 68.6
7/7/20 - 2100 54.6 42 32.0 43.1 SSW | 210 2.3 5.3 54.6 30.14 3.0 0.00 0.00 49.3 68.6
7/7/20 - 2045 55.7 40 31.8 43.5 SSW | 208 2.5 5.0 55.7 30.13 2.9 0.00 0.00 49.3 68.6
7/7/20 - 2030 56.6 39 31.9 43.9 SSW | 211 2.9 5.0 56.6 30.14 3.0 0.00 0.00 49.3 68.6
7/7/20 - 2015 57.9 37 32.0 44.6 SSW | 209 2.8 5.2 57.9 30.13 3.1 0.00 0.00 49.3 68.6
7/7/20 - 2000 59.3 35 32.0 45.1 S | 177 1.9 4.7 59.3 30.14 3.0 0.00 0.00 49.3 68.6
7/7/20 - 1945 61.0 33 31.4 45.6 SSE | 161 1.8 4.3 61.0 30.14 3.1 0.00 0.00 49.3 68.6
7/7/20 - 1930 60.1 34 31.6 45.3 S | 181 1.5 4.0 60.1 30.14 2.9 0.00 0.00 49.3 68.6
7/7/20 - 1915 61.8 32 31.5 46.0 NNE | 20 2.2 5.8 61.8 30.14 2.6 0.00 0.00 49.3 68.6
7/7/20 - 1900 63.4 30 31.7 46.8 ENE | 61 1.9 7.1 63.4 30.13 2.4 0.00 0.00 49.3 68.6
7/7/20 - 1845 63.6 31 32.6 47.1 E | 80 2.2 11.1 63.6 30.14 1.9 0.00 0.00 49.3 68.6
7/7/20 - 1830 65.6 27 30.8 47.3 N | 359 2.2 7.3 65.6 30.14 2.5 0.00 0.00 49.3 68.6
Max 65.6 49 33.4 47.3 - 4.0 11.1 65.6 30.16 3.7 0.00 0.00 50.0 68.6
Avg 55.9 39 31.2 43.3 - 2.6 5.4 55.7 30.14 3.0 0.00 - - -
Min 50.1 27 26.5 39.1 - 1.5 4.0 48.6 30.13 1.9 0.00 0.00 49.3 50.4
Total - - - - - - - - - - 0.00 - - -

Last 30 Days

Alpine-Roundhouse Btm 6950'

Daily Data | America/Los_Angeles
as of 7/8/20 12:27 AM PDT
Date Daily Max Temp (°F) Max Temp Time Daily Min Temp (°F) Min Temp Time Wind Spd (mph) Daily Max Wind (mph) Max Wind Dir (°) Max Wind Time Daily Rain (In) Seasonal Rainfall (In) SnowDepth (in) Max RH (%) Min RH (%) Wet Bulb (°F) WetB Hrs <28F (hrs) Min Press (inHg) Time of Min Press Bat Volt Min Day (V)
7/7/20 68.6 1538 49.3 0436 3.4 17.3 SE | 146 0119 0.00 17.74 3.3 49 17 42.7 0.0 30.09 0250 13.1
7/6/20 72.7 1345 51.6 0603 4.0 24.4 SSE | 149 1729 0.00 17.74 3.0 32 13 43.7 0.0 30.09 2050 13.1
7/5/20 71.7 1309 48.5 0415 3.3 19.7 ESE | 102 1337 0.00 17.74 2.6 47 15 44.4 0.0 30.19 2310 13.1
7/4/20 69.4 1511 53.0 2347 3.6 18.8 SSE | 167 1555 0.00 17.74 3.0 51 18 46.1 0.0 30.21 0155 13.1
7/3/20 67.8 1514 52.9 0424 4.8 20.3 SE | 134 1555 0.00 17.74 2.6 69 26 48.4 0.0 30.12 0215 13.1
7/2/20 68.6 1253 47.8 0553 2.8 16.1 SE | 128 1346 0.00 17.74 2.4 77 31 48.4 0.0 30.05 0440 13.1
7/1/20 66.6 1443 44.9 0625 2.7 16.9 SSE | 166 1459 0.00 17.74 2.5 73 25 45.6 0.0 30.04 1745 13.1
6/30/20 63.6 1744 44.8 0432 2.9 18.5 SE | 140 1503 0.00 17.74 3.0 68 37 44.3 0.0 30.09 2055 13.1
6/29/20 59.8 1514 35.9 0428 2.0 10.4 N | 10 1009 0.00 17.74 3.0 85 29 40.2 0.0 29.93 0350 13.1
6/28/20 60.6 0116 46.3 2316 5.5 30.2 SE | 136 1105 0.00 17.74 3.5 81 20 45.2 0.0 29.81 1435 13.1
6/27/20 75.4 1317 59.5 2353 5.0 35.2 SSE | 163 1516 0.00 17.74 2.4 57 20 52.1 0.0 29.99 2355 13.1
6/26/20 81.8 1711 56.3 0616 2.5 14.2 N | 5 1133 0.00 17.74 2.8 65 15 53.6 0.0 30.16 0125 13.1
6/25/20 78.1 1720 55.1 0612 2.3 11.7 S | 190 1801 0.00 17.74 2.5 82 23 55.5 0.0 30.09 0330 13.1
6/24/20 79.1 1324 58.1 0612 2.6 26.9 NNW | 345 1740 0.00 17.74 1.6 80 22 56.1 0.0 30.07 1725 13.1
6/23/20 82.3 1334 60.2 0617 2.3 14.5 SSE | 164 1722 0.00 17.74 2.2 72 22 55.6 0.0 30.18 2330 13.1
6/22/20 80.7 1639 55.3 0635 2.2 11.5 SE | 145 1358 0.00 17.74 2.2 71 23 55.4 0.0 30.21 0505 13.1
6/21/20 74.1 1342 51.2 0618 2.8 16.7 NW | 323 1528 0.00 17.74 2.9 59 16 48.2 0.0 30.17 0510 13.1
6/20/20 72.1 1445 53.1 0604 3.2 21.7 SE | 146 1719 0.00 17.74 0.6 65 24 49.0 0.0 30.17 0405 13.1
6/19/20 71.3 1500 47.2 0548 2.4 15.6 SSE | 153 1513 0.00 17.74 2.7 57 25 46.2 0.0 30.14 1635 13.1
6/18/20 69.9 1730 41.9 0355 2.0 11.8 SSE | 155 1119 0.00 17.74 1.9 58 12 42.2 0.0 30.13 1755 13.1
6/17/20 60.6 1806 32.7 0519 2.4 13.5 SE | 135 1429 0.00 17.74 1.7 87 17 37.4 0.0 30.12 0035 13.1
6/16/20 54.2 1221 37.7 2355 5.1 27.7 SSE | 162 1210 0.00 17.74 3.2 83 27 39.8 0.0 30.01 0945 13.1
6/15/20 58.8 1057 46.9 0131 3.9 24.8 SSE | 147 1702 0.00 17.74 2.9 84 20 45.7 0.0 30.04 2345 13.1
6/14/20 60.1 1755 35.8 0228 2.1 18.5 SE | 135 1603 0.00 17.74 3.0 90 25 41.2 0.0 30.05 0110 13.1
6/13/20 46.4 1249 33.4 0601 5.0 23.0 SE | 146 0128 0.10 17.74 2.9 99 41 35.1 0.0 30.00 0030 13.0
6/12/20 59.6 1126 34.6 2343 4.1 20.5 SE | 126 1733 0.36 17.64 1.8 96 39 43.0 0.0 30.01 2340 13.1
6/11/20 69.1 1307 49.0 0609 3.2 17.5 SE | 143 1537 0.00 17.28 1.8 68 19 45.9 0.0 30.18 2355 13.1
6/10/20 69.4 1334 47.5 0651 2.9 17.4 SSE | 163 1708 0.00 17.28 0.9 71 26 47.1 0.0 30.21 1855 13.1
6/9/20 65.2 1318 40.4 0518 1.7 10.3 N | 354 1834 0.00 17.28 1.2 74 34 44.2 0.0 30.25 0335 13.1
6/8/20 58.2 1716 26.5 0635 1.7 13.6 SE | 142 1512 0.00 17.28 2.5 99 22 35.1 3.7 30.11 0001 13.1
Max 82.3 - 60.2 - 5.5 35.2 - - 0.36 - 3.5 99 41 56.1 3.7 30.25 - 13.1
Avg - - - - 3.1 - - - - - 2.4 - - 45.9 - - - -
Min 46.4 - 26.5 - 1.7 10.3 - - 0.00 - 0.6 32 12 35.1 0.0 29.81 - 13.0
Calm: 0.0%
Calm: 0.0%